Poth, Texas
Current Conditions -  °F | °C
As of 1:55 PM on Wednesday 17 Dec 2014 (Local Time) from KPEZ Reporting Station
Overcast Overcast  
Wind Chill: 60°   Ceiling: 1200
Heat Index: 60°   Visibility: 10mi
Dew Point: 51°   Wind: 7mph
Humidity: 74%   Direction: 50°NE
Pressure: 30.05"   Gusts: NA
Location:  29.07°N, 98.08°W
Report Text: KPEZ 171955Z AUTO 05006KT 10SM OVC012 15/11 A3005 RMK AO2 T01530107
Loading
Personal Weather Stations






























Interactive Weather Map New forecast layout! Learn more

10-Day Weather Forecast

Advertisements
Track Severe Weather on mobile